sensor_id;sensor_type;location;lat;lon;timestamp;P1;durP1;ratioP1;P2;durP2;ratioP2
32295;SDS011;18781;51.550;5.418;2023-03-14T00:02:09;12.90;;;2.40;;
32295;SDS011;18781;51.550;5.418;2023-03-14T00:04:35;10.65;;;1.98;;
32295;SDS011;18781;51.550;5.418;2023-03-14T00:07:01;11.80;;;2.30;;
32295;SDS011;18781;51.550;5.418;2023-03-14T00:09:32;17.30;;;2.65;;
32295;SDS011;18781;51.550;5.418;2023-03-14T00:11:58;10.25;;;2.15;;
32295;SDS011;18781;51.550;5.418;2023-03-14T00:14:24;14.38;;;2.30;;
32295;SDS011;18781;51.550;5.418;2023-03-14T00:16:49;14.15;;;2.35;;
32295;SDS011;18781;51.550;5.418;2023-03-14T00:19:15;10.68;;;1.90;;
32295;SDS011;18781;51.550;5.418;2023-03-14T00:21:40;9.60;;;2.40;;
32295;SDS011;18781;51.550;5.418;2023-03-14T00:24:06;10.82;;;1.90;;
32295;SDS011;18781;51.550;5.418;2023-03-14T00:26:33;12.70;;;2.20;;
32295;SDS011;18781;51.550;5.418;2023-03-14T00:28:58;14.35;;;1.98;;
32295;SDS011;18781;51.550;5.418;2023-03-14T00:31:24;13.65;;;1.88;;
32295;SDS011;18781;51.550;5.418;2023-03-14T00:33:51;10.60;;;1.90;;
32295;SDS011;18781;51.550;5.418;2023-03-14T00:36:17;11.60;;;1.70;;
32295;SDS011;18781;51.550;5.418;2023-03-14T00:38:44;10.02;;;2.13;;
32295;SDS011;18781;51.550;5.418;2023-03-14T00:41:12;10.15;;;2.25;;
32295;SDS011;18781;51.550;5.418;2023-03-14T00:43:40;11.90;;;2.13;;
32295;SDS011;18781;51.550;5.418;2023-03-14T00:46:06;10.40;;;2.05;;
32295;SDS011;18781;51.550;5.418;2023-03-14T00:48:32;8.02;;;2.20;;
32295;SDS011;18781;51.550;5.418;2023-03-14T00:50:58;14.50;;;2.65;;
32295;SDS011;18781;51.550;5.418;2023-03-14T00:53:24;8.70;;;1.90;;
32295;SDS011;18781;51.550;5.418;2023-03-14T00:55:49;7.88;;;1.83;;
32295;SDS011;18781;51.550;5.418;2023-03-14T00:58:15;11.50;;;2.33;;
32295;SDS011;18781;51.550;5.418;2023-03-14T01:00:42;10.65;;;2.03;;
32295;SDS011;18781;51.550;5.418;2023-03-14T01:03:09;9.65;;;2.00;;
32295;SDS011;18781;51.550;5.418;2023-03-14T01:05:36;10.98;;;2.13;;
32295;SDS011;18781;51.550;5.418;2023-03-14T01:08:02;10.20;;;2.00;;
32295;SDS011;18781;51.550;5.418;2023-03-14T01:10:28;14.57;;;2.25;;
32295;SDS011;18781;51.550;5.418;2023-03-14T01:12:54;11.85;;;1.90;;
32295;SDS011;18781;51.550;5.418;2023-03-14T01:15:20;13.98;;;2.03;;
32295;SDS011;18781;51.550;5.418;2023-03-14T01:17:45;11.95;;;2.05;;
32295;SDS011;18781;51.550;5.418;2023-03-14T01:20:12;13.38;;;1.63;;
32295;SDS011;18781;51.550;5.418;2023-03-14T01:22:39;10.57;;;1.52;;
32295;SDS011;18781;51.550;5.418;2023-03-14T01:25:06;8.23;;;1.90;;
32295;SDS011;18781;51.550;5.418;2023-03-14T01:27:33;7.22;;;1.55;;
32295;SDS011;18781;51.550;5.418;2023-03-14T01:29:59;7.35;;;1.63;;
32295;SDS011;18781;51.550;5.418;2023-03-14T01:32:25;14.60;;;1.80;;
32295;SDS011;18781;51.550;5.418;2023-03-14T01:34:51;7.63;;;1.77;;
32295;SDS011;18781;51.550;5.418;2023-03-14T01:37:16;9.43;;;1.67;;
32295;SDS011;18781;51.550;5.418;2023-03-14T01:39:42;9.48;;;1.75;;
32295;SDS011;18781;51.550;5.418;2023-03-14T01:42:08;7.70;;;1.80;;
32295;SDS011;18781;51.550;5.418;2023-03-14T01:47:25;7.95;;;1.67;;
32295;SDS011;18781;51.550;5.418;2023-03-14T01:49:53;6.05;;;1.70;;
32295;SDS011;18781;51.550;5.418;2023-03-14T01:52:32;10.90;;;1.63;;
32295;SDS011;18781;51.550;5.418;2023-03-14T01:55:12;8.27;;;1.60;;
32295;SDS011;18781;51.550;5.418;2023-03-14T01:57:44;10.68;;;2.00;;
32295;SDS011;18781;51.550;5.418;2023-03-14T02:00:23;9.65;;;2.22;;
32295;SDS011;18781;51.550;5.418;2023-03-14T02:03:00;7.85;;;1.70;;
32295;SDS011;18781;51.550;5.418;2023-03-14T02:05:30;9.63;;;1.85;;
32295;SDS011;18781;51.550;5.418;2023-03-14T02:07:59;10.20;;;2.00;;
32295;SDS011;18781;51.550;5.418;2023-03-14T02:10:28;10.23;;;1.88;;
32295;SDS011;18781;51.550;5.418;2023-03-14T02:15:24;16.60;;;2.10;;
32295;SDS011;18781;51.550;5.418;2023-03-14T02:17:50;13.50;;;2.33;;
32295;SDS011;18781;51.550;5.418;2023-03-14T02:20:34;11.02;;;1.95;;
32295;SDS011;18781;51.550;5.418;2023-03-14T02:23:33;11.50;;;1.88;;
32295;SDS011;18781;51.550;5.418;2023-03-14T02:26:40;17.70;;;2.30;;
32295;SDS011;18781;51.550;5.418;2023-03-14T02:29:10;14.18;;;2.47;;
32295;SDS011;18781;51.550;5.418;2023-03-14T02:31:35;11.30;;;2.13;;
32295;SDS011;18781;51.550;5.418;2023-03-14T02:34:01;14.52;;;2.42;;
32295;SDS011;18781;51.550;5.418;2023-03-14T02:36:28;11.20;;;2.15;;
32295;SDS011;18781;51.550;5.418;2023-03-14T02:41:28;13.43;;;2.75;;
32295;SDS011;18781;51.550;5.418;2023-03-14T02:43:54;10.35;;;2.85;;
32295;SDS011;18781;51.550;5.418;2023-03-14T02:46:20;14.48;;;2.30;;
32295;SDS011;18781;51.550;5.418;2023-03-14T02:48:51;13.02;;;2.47;;
32295;SDS011;18781;51.550;5.418;2023-03-14T02:51:17;20.88;;;3.08;;
32295;SDS011;18781;51.550;5.418;2023-03-14T02:53:44;14.95;;;2.17;;
32295;SDS011;18781;51.550;5.418;2023-03-14T02:56:09;12.05;;;2.10;;
32295;SDS011;18781;51.550;5.418;2023-03-14T02:58:35;16.52;;;2.60;;
32295;SDS011;18781;51.550;5.418;2023-03-14T03:01:02;10.88;;;2.67;;
32295;SDS011;18781;51.550;5.418;2023-03-14T03:03:28;15.20;;;2.42;;
32295;SDS011;18781;51.550;5.418;2023-03-14T03:05:54;12.27;;;2.53;;
32295;SDS011;18781;51.550;5.418;2023-03-14T03:08:22;19.05;;;3.10;;
32295;SDS011;18781;51.550;5.418;2023-03-14T03:10:49;10.23;;;2.50;;
32295;SDS011;18781;51.550;5.418;2023-03-14T03:13:15;11.95;;;2.10;;
32295;SDS011;18781;51.550;5.418;2023-03-14T03:15:41;16.27;;;2.45;;
32295;SDS011;18781;51.550;5.418;2023-03-14T03:18:08;11.77;;;2.20;;
32295;SDS011;18781;51.550;5.418;2023-03-14T03:20:34;10.13;;;2.35;;
32295;SDS011;18781;51.550;5.418;2023-03-14T03:22:59;16.00;;;2.38;;
32295;SDS011;18781;51.550;5.418;2023-03-14T03:25:25;17.08;;;2.28;;
32295;SDS011;18781;51.550;5.418;2023-03-14T03:27:51;11.30;;;1.98;;
32295;SDS011;18781;51.550;5.418;2023-03-14T03:30:17;9.75;;;2.20;;
32295;SDS011;18781;51.550;5.418;2023-03-14T03:32:43;11.98;;;2.58;;
32295;SDS011;18781;51.550;5.418;2023-03-14T03:35:08;9.20;;;1.95;;
32295;SDS011;18781;51.550;5.418;2023-03-14T03:37:34;15.90;;;2.63;;
32295;SDS011;18781;51.550;5.418;2023-03-14T03:40:00;13.90;;;2.20;;
32295;SDS011;18781;51.550;5.418;2023-03-14T03:42:26;15.52;;;2.38;;
32295;SDS011;18781;51.550;5.418;2023-03-14T03:44:52;16.02;;;2.60;;
32295;SDS011;18781;51.550;5.418;2023-03-14T03:47:18;14.68;;;3.03;;
32295;SDS011;18781;51.550;5.418;2023-03-14T03:49:43;9.18;;;1.70;;
32295;SDS011;18781;51.550;5.418;2023-03-14T03:52:09;11.93;;;1.77;;
32295;SDS011;18781;51.550;5.418;2023-03-14T03:54:35;9.38;;;2.10;;
32295;SDS011;18781;51.550;5.418;2023-03-14T03:57:00;9.02;;;1.90;;
32295;SDS011;18781;51.550;5.418;2023-03-14T03:59:26;8.55;;;1.67;;
32295;SDS011;18781;51.550;5.418;2023-03-14T04:01:52;7.40;;;1.77;;
32295;SDS011;18781;51.550;5.418;2023-03-14T04:04:17;8.75;;;1.77;;
32295;SDS011;18781;51.550;5.418;2023-03-14T04:06:43;7.55;;;1.48;;
32295;SDS011;18781;51.550;5.418;2023-03-14T04:09:09;11.10;;;1.75;;
32295;SDS011;18781;51.550;5.418;2023-03-14T04:11:35;6.65;;;1.50;;
32295;SDS011;18781;51.550;5.418;2023-03-14T04:14:01;12.02;;;1.77;;
32295;SDS011;18781;51.550;5.418;2023-03-14T04:16:27;7.00;;;2.15;;
32295;SDS011;18781;51.550;5.418;2023-03-14T04:18:54;10.15;;;1.73;;
32295;SDS011;18781;51.550;5.418;2023-03-14T04:21:19;10.10;;;2.00;;
32295;SDS011;18781;51.550;5.418;2023-03-14T04:23:45;4.82;;;1.48;;
32295;SDS011;18781;51.550;5.418;2023-03-14T04:26:11;12.07;;;1.80;;
32295;SDS011;18781;51.550;5.418;2023-03-14T04:28:36;8.15;;;1.77;;
32295;SDS011;18781;51.550;5.418;2023-03-14T04:31:11;6.93;;;1.70;;
32295;SDS011;18781;51.550;5.418;2023-03-14T04:33:41;6.75;;;1.63;;
32295;SDS011;18781;51.550;5.418;2023-03-14T04:36:07;10.02;;;1.92;;
32295;SDS011;18781;51.550;5.418;2023-03-14T04:38:33;6.63;;;1.98;;
32295;SDS011;18781;51.550;5.418;2023-03-14T04:40:59;5.75;;;1.80;;
32295;SDS011;18781;51.550;5.418;2023-03-14T04:43:26;4.47;;;1.60;;
32295;SDS011;18781;51.550;5.418;2023-03-14T04:45:55;4.95;;;1.63;;
32295;SDS011;18781;51.550;5.418;2023-03-14T04:48:22;6.90;;;1.48;;
32295;SDS011;18781;51.550;5.418;2023-03-14T04:50:48;8.15;;;2.13;;
32295;SDS011;18781;51.550;5.418;2023-03-14T04:53:15;5.70;;;1.70;;
32295;SDS011;18781;51.550;5.418;2023-03-14T04:55:41;5.43;;;1.48;;
32295;SDS011;18781;51.550;5.418;2023-03-14T04:58:07;3.65;;;1.25;;
32295;SDS011;18781;51.550;5.418;2023-03-14T05:00:33;6.07;;;1.30;;
32295;SDS011;18781;51.550;5.418;2023-03-14T05:02:58;5.00;;;1.50;;
32295;SDS011;18781;51.550;5.418;2023-03-14T05:05:24;5.40;;;1.23;;
32295;SDS011;18781;51.550;5.418;2023-03-14T05:07:50;4.57;;;1.30;;
32295;SDS011;18781;51.550;5.418;2023-03-14T05:10:16;4.15;;;1.38;;
32295;SDS011;18781;51.550;5.418;2023-03-14T05:12:42;5.30;;;1.50;;
32295;SDS011;18781;51.550;5.418;2023-03-14T05:15:07;7.45;;;1.27;;
32295;SDS011;18781;51.550;5.418;2023-03-14T05:17:33;5.18;;;1.27;;
32295;SDS011;18781;51.550;5.418;2023-03-14T05:19:59;3.38;;;1.17;;
32295;SDS011;18781;51.550;5.418;2023-03-14T05:22:24;7.22;;;1.73;;
32295;SDS011;18781;51.550;5.418;2023-03-14T05:24:50;3.97;;;1.10;;
32295;SDS011;18781;51.550;5.418;2023-03-14T05:27:16;6.00;;;1.25;;
32295;SDS011;18781;51.550;5.418;2023-03-14T05:29:41;4.50;;;1.45;;
32295;SDS011;18781;51.550;5.418;2023-03-14T05:32:07;6.40;;;1.50;;
32295;SDS011;18781;51.550;5.418;2023-03-14T05:34:33;7.75;;;1.77;;
32295;SDS011;18781;51.550;5.418;2023-03-14T05:36:58;7.00;;;1.75;;
32295;SDS011;18781;51.550;5.418;2023-03-14T05:39:24;6.07;;;1.52;;
32295;SDS011;18781;51.550;5.418;2023-03-14T05:41:50;6.32;;;1.70;;
32295;SDS011;18781;51.550;5.418;2023-03-14T05:44:16;5.93;;;1.63;;
32295;SDS011;18781;51.550;5.418;2023-03-14T05:46:41;5.35;;;2.00;;
32295;SDS011;18781;51.550;5.418;2023-03-14T05:49:07;6.53;;;1.95;;
32295;SDS011;18781;51.550;5.418;2023-03-14T05:51:33;8.90;;;2.03;;
32295;SDS011;18781;51.550;5.418;2023-03-14T05:53:58;7.50;;;2.17;;
32295;SDS011;18781;51.550;5.418;2023-03-14T05:56:24;10.48;;;2.25;;
32295;SDS011;18781;51.550;5.418;2023-03-14T05:58:49;4.88;;;2.25;;
32295;SDS011;18781;51.550;5.418;2023-03-14T06:01:15;9.52;;;2.00;;
32295;SDS011;18781;51.550;5.418;2023-03-14T06:03:41;8.40;;;2.58;;
32295;SDS011;18781;51.550;5.418;2023-03-14T06:06:06;8.27;;;2.53;;
32295;SDS011;18781;51.550;5.418;2023-03-14T06:08:32;7.95;;;2.22;;
32295;SDS011;18781;51.550;5.418;2023-03-14T06:10:59;6.72;;;2.38;;
32295;SDS011;18781;51.550;5.418;2023-03-14T06:13:27;5.25;;;2.00;;
32295;SDS011;18781;51.550;5.418;2023-03-14T06:15:52;7.20;;;2.25;;
32295;SDS011;18781;51.550;5.418;2023-03-14T06:18:18;9.88;;;2.45;;
32295;SDS011;18781;51.550;5.418;2023-03-14T06:20:44;9.43;;;2.42;;
32295;SDS011;18781;51.550;5.418;2023-03-14T06:23:09;7.18;;;2.20;;
32295;SDS011;18781;51.550;5.418;2023-03-14T06:25:35;4.45;;;2.13;;
32295;SDS011;18781;51.550;5.418;2023-03-14T06:28:01;6.65;;;2.42;;
32295;SDS011;18781;51.550;5.418;2023-03-14T06:30:27;8.15;;;2.67;;
32295;SDS011;18781;51.550;5.418;2023-03-14T06:32:53;4.15;;;2.50;;
32295;SDS011;18781;51.550;5.418;2023-03-14T06:35:20;5.57;;;2.50;;
32295;SDS011;18781;51.550;5.418;2023-03-14T06:37:46;5.03;;;2.50;;
32295;SDS011;18781;51.550;5.418;2023-03-14T06:40:12;6.25;;;2.78;;
32295;SDS011;18781;51.550;5.418;2023-03-14T06:45:07;7.18;;;3.28;;
32295;SDS011;18781;51.550;5.418;2023-03-14T06:47:33;6.80;;;2.90;;
32295;SDS011;18781;51.550;5.418;2023-03-14T06:49:59;12.73;;;3.35;;
32295;SDS011;18781;51.550;5.418;2023-03-14T06:52:25;9.18;;;3.38;;
32295;SDS011;18781;51.550;5.418;2023-03-14T06:54:50;6.18;;;3.08;;
32295;SDS011;18781;51.550;5.418;2023-03-14T06:57:16;10.07;;;3.60;;
32295;SDS011;18781;51.550;5.418;2023-03-14T06:59:41;5.47;;;3.15;;
32295;SDS011;18781;51.550;5.418;2023-03-14T07:02:09;8.55;;;3.45;;
32295;SDS011;18781;51.550;5.418;2023-03-14T07:04:35;7.03;;;2.35;;
32295;SDS011;18781;51.550;5.418;2023-03-14T07:07:02;10.90;;;3.20;;
32295;SDS011;18781;51.550;5.418;2023-03-14T07:09:28;7.63;;;3.40;;
32295;SDS011;18781;51.550;5.418;2023-03-14T07:11:54;9.90;;;3.63;;
32295;SDS011;18781;51.550;5.418;2023-03-14T07:14:19;6.80;;;3.03;;
32295;SDS011;18781;51.550;5.418;2023-03-14T07:16:45;7.05;;;3.10;;
32295;SDS011;18781;51.550;5.418;2023-03-14T07:19:11;9.20;;;3.40;;
32295;SDS011;18781;51.550;5.418;2023-03-14T07:21:37;7.68;;;3.10;;
32295;SDS011;18781;51.550;5.418;2023-03-14T07:24:02;7.22;;;3.40;;
32295;SDS011;18781;51.550;5.418;2023-03-14T07:26:28;8.02;;;3.10;;
32295;SDS011;18781;51.550;5.418;2023-03-14T07:28:54;6.30;;;1.60;;
32295;SDS011;18781;51.550;5.418;2023-03-14T07:31:20;2.15;;;1.20;;
32295;SDS011;18781;51.550;5.418;2023-03-14T07:33:45;3.97;;;1.00;;
32295;SDS011;18781;51.550;5.418;2023-03-14T07:36:11;1.98;;;0.57;;
32295;SDS011;18781;51.550;5.418;2023-03-14T07:38:37;2.08;;;0.80;;
32295;SDS011;18781;51.550;5.418;2023-03-14T07:41:03;2.10;;;0.50;;
32295;SDS011;18781;51.550;5.418;2023-03-14T07:43:30;1.63;;;0.70;;
32295;SDS011;18781;51.550;5.418;2023-03-14T07:45:56;2.70;;;0.63;;
32295;SDS011;18781;51.550;5.418;2023-03-14T07:48:22;2.38;;;0.73;;
32295;SDS011;18781;51.550;5.418;2023-03-14T07:50:49;1.58;;;0.70;;
32295;SDS011;18781;51.550;5.418;2023-03-14T07:53:16;3.55;;;0.70;;
32295;SDS011;18781;51.550;5.418;2023-03-14T07:55:42;3.20;;;0.68;;
32295;SDS011;18781;51.550;5.418;2023-03-14T07:58:07;2.10;;;0.82;;
32295;SDS011;18781;51.550;5.418;2023-03-14T08:00:33;4.82;;;1.13;;
32295;SDS011;18781;51.550;5.418;2023-03-14T08:02:59;4.18;;;0.88;;
32295;SDS011;18781;51.550;5.418;2023-03-14T08:05:24;2.33;;;1.00;;
32295;SDS011;18781;51.550;5.418;2023-03-14T08:07:50;1.67;;;0.90;;
32295;SDS011;18781;51.550;5.418;2023-03-14T08:10:15;2.40;;;1.15;;
32295;SDS011;18781;51.550;5.418;2023-03-14T08:12:51;3.83;;;1.02;;
32295;SDS011;18781;51.550;5.418;2023-03-14T08:15:21;3.97;;;1.17;;
32295;SDS011;18781;51.550;5.418;2023-03-14T08:17:46;5.20;;;1.48;;
32295;SDS011;18781;51.550;5.418;2023-03-14T08:20:16;5.45;;;1.55;;
32295;SDS011;18781;51.550;5.418;2023-03-14T08:22:42;3.75;;;1.33;;
32295;SDS011;18781;51.550;5.418;2023-03-14T08:25:08;5.40;;;1.30;;
32295;SDS011;18781;51.550;5.418;2023-03-14T08:27:34;4.40;;;1.00;;
32295;SDS011;18781;51.550;5.418;2023-03-14T08:30:02;2.22;;;0.93;;
32295;SDS011;18781;51.550;5.418;2023-03-14T08:32:29;3.03;;;1.10;;
32295;SDS011;18781;51.550;5.418;2023-03-14T08:34:55;4.57;;;1.08;;
32295;SDS011;18781;51.550;5.418;2023-03-14T08:37:21;3.00;;;1.20;;
32295;SDS011;18781;51.550;5.418;2023-03-14T08:39:46;4.15;;;1.00;;
32295;SDS011;18781;51.550;5.418;2023-03-14T08:42:12;6.63;;;1.20;;
32295;SDS011;18781;51.550;5.418;2023-03-14T08:44:38;8.02;;;1.60;;
32295;SDS011;18781;51.550;5.418;2023-03-14T08:47:03;2.75;;;1.40;;
32295;SDS011;18781;51.550;5.418;2023-03-14T08:49:29;3.55;;;1.33;;
32295;SDS011;18781;51.550;5.418;2023-03-14T08:51:55;6.97;;;1.60;;
32295;SDS011;18781;51.550;5.418;2023-03-14T08:54:20;8.27;;;1.38;;
32295;SDS011;18781;51.550;5.418;2023-03-14T08:56:46;7.22;;;1.40;;
32295;SDS011;18781;51.550;5.418;2023-03-14T08:59:12;5.72;;;1.48;;
32295;SDS011;18781;51.550;5.418;2023-03-14T09:01:37;4.78;;;1.40;;
32295;SDS011;18781;51.550;5.418;2023-03-14T09:04:03;6.05;;;1.45;;
32295;SDS011;18781;51.550;5.418;2023-03-14T09:06:29;8.10;;;1.42;;
32295;SDS011;18781;51.550;5.418;2023-03-14T09:08:54;5.75;;;1.77;;
32295;SDS011;18781;51.550;5.418;2023-03-14T09:11:20;7.63;;;1.92;;
32295;SDS011;18781;51.550;5.418;2023-03-14T09:13:45;4.43;;;1.70;;
32295;SDS011;18781;51.550;5.418;2023-03-14T09:16:11;8.32;;;1.80;;
32295;SDS011;18781;51.550;5.418;2023-03-14T09:18:37;8.07;;;2.00;;
32295;SDS011;18781;51.550;5.418;2023-03-14T09:21:03;10.00;;;2.00;;
32295;SDS011;18781;51.550;5.418;2023-03-14T09:23:29;5.50;;;1.42;;
32295;SDS011;18781;51.550;5.418;2023-03-14T09:25:55;8.45;;;1.88;;
32295;SDS011;18781;51.550;5.418;2023-03-14T09:28:21;4.22;;;1.05;;
32295;SDS011;18781;51.550;5.418;2023-03-14T09:30:47;2.58;;;1.10;;
32295;SDS011;18781;51.550;5.418;2023-03-14T09:33:14;3.97;;;1.00;;
32295;SDS011;18781;51.550;5.418;2023-03-14T09:35:40;4.38;;;0.85;;
32295;SDS011;18781;51.550;5.418;2023-03-14T09:38:06;4.07;;;1.48;;
32295;SDS011;18781;51.550;5.418;2023-03-14T09:40:33;2.75;;;1.40;;
32295;SDS011;18781;51.550;5.418;2023-03-14T09:43:00;1.90;;;0.88;;
32295;SDS011;18781;51.550;5.418;2023-03-14T09:48:00;3.58;;;1.00;;
32295;SDS011;18781;51.550;5.418;2023-03-14T09:50:31;2.90;;;0.60;;
32295;SDS011;18781;51.550;5.418;2023-03-14T09:53:11;2.90;;;0.88;;
32295;SDS011;18781;51.550;5.418;2023-03-14T09:55:41;1.52;;;0.85;;
32295;SDS011;18781;51.550;5.418;2023-03-14T09:58:12;5.07;;;0.80;;
32295;SDS011;18781;51.550;5.418;2023-03-14T10:00:40;2.88;;;0.70;;
32295;SDS011;18781;51.550;5.418;2023-03-14T10:05:38;2.90;;;0.80;;
32295;SDS011;18781;51.550;5.418;2023-03-14T10:08:05;9.73;;;1.45;;
32295;SDS011;18781;51.550;5.418;2023-03-14T10:10:31;6.75;;;1.13;;
32295;SDS011;18781;51.550;5.418;2023-03-14T10:15:35;6.80;;;1.38;;
32295;SDS011;18781;51.550;5.418;2023-03-14T10:18:03;7.53;;;1.30;;
32295;SDS011;18781;51.550;5.418;2023-03-14T10:20:41;6.70;;;1.30;;
32295;SDS011;18781;51.550;5.418;2023-03-14T10:25:58;8.38;;;1.75;;
32295;SDS011;18781;51.550;5.418;2023-03-14T10:28:28;8.05;;;1.42;;
32295;SDS011;18781;51.550;5.418;2023-03-14T10:30:56;7.50;;;1.25;;
32295;SDS011;18781;51.550;5.418;2023-03-14T10:33:26;12.82;;;1.88;;
32295;SDS011;18781;51.550;5.418;2023-03-14T10:35:59;13.60;;;2.42;;
32295;SDS011;18781;51.550;5.418;2023-03-14T10:38:28;8.77;;;2.13;;
32295;SDS011;18781;51.550;5.418;2023-03-14T10:40:55;15.10;;;2.72;;
32295;SDS011;18781;51.550;5.418;2023-03-14T10:43:25;17.45;;;2.42;;
32295;SDS011;18781;51.550;5.418;2023-03-14T10:45:57;15.27;;;2.20;;
32295;SDS011;18781;51.550;5.418;2023-03-14T10:48:31;17.50;;;2.30;;
32295;SDS011;18781;51.550;5.418;2023-03-14T10:53:45;14.10;;;3.33;;
32295;SDS011;18781;51.550;5.418;2023-03-14T10:58:48;15.73;;;2.10;;
32295;SDS011;18781;51.550;5.418;2023-03-14T11:01:26;21.02;;;2.97;;
32295;SDS011;18781;51.550;5.418;2023-03-14T11:06:44;19.85;;;2.70;;
32295;SDS011;18781;51.550;5.418;2023-03-14T11:13:03;25.27;;;2.90;;
32295;SDS011;18781;51.550;5.418;2023-03-14T11:25:46;25.90;;;3.85;;
32295;SDS011;18781;51.550;5.418;2023-03-14T11:31:09;18.67;;;3.85;;
32295;SDS011;18781;51.550;5.418;2023-03-14T11:36:20;21.40;;;3.13;;
32295;SDS011;18781;51.550;5.418;2023-03-14T11:38:52;22.10;;;3.88;;
32295;SDS011;18781;51.550;5.418;2023-03-14T11:44:09;24.38;;;4.05;;
32295;SDS011;18781;51.550;5.418;2023-03-14T11:47:15;33.95;;;5.82;;
32295;SDS011;18781;51.550;5.418;2023-03-14T11:49:47;24.35;;;4.90;;
32295;SDS011;18781;51.550;5.418;2023-03-14T11:57:56;29.98;;;3.60;;
32295;SDS011;18781;51.550;5.418;2023-03-14T12:00:26;27.10;;;3.58;;
32295;SDS011;18781;51.550;5.418;2023-03-14T12:03:56;25.38;;;3.72;;
32295;SDS011;18781;51.550;5.418;2023-03-14T12:11:09;15.52;;;2.88;;
32295;SDS011;18781;51.550;5.418;2023-03-14T12:13:39;14.80;;;2.22;;
32295;SDS011;18781;51.550;5.418;2023-03-14T12:16:07;20.65;;;3.97;;
32295;SDS011;18781;51.550;5.418;2023-03-14T12:18:44;32.50;;;3.72;;
32295;SDS011;18781;51.550;5.418;2023-03-14T12:21:11;19.88;;;2.80;;
32295;SDS011;18781;51.550;5.418;2023-03-14T12:23:41;33.88;;;3.13;;
32295;SDS011;18781;51.550;5.418;2023-03-14T12:26:19;29.52;;;3.40;;
32295;SDS011;18781;51.550;5.418;2023-03-14T12:42:17;26.63;;;3.97;;
32295;SDS011;18781;51.550;5.418;2023-03-14T12:47:52;38.03;;;3.92;;
32295;SDS011;18781;51.550;5.418;2023-03-14T12:50:21;24.73;;;3.77;;
32295;SDS011;18781;51.550;5.418;2023-03-14T12:58:23;30.92;;;4.22;;
32295;SDS011;18781;51.550;5.418;2023-03-14T13:01:14;31.25;;;4.60;;
32295;SDS011;18781;51.550;5.418;2023-03-14T13:03:45;31.15;;;4.13;;
32295;SDS011;18781;51.550;5.418;2023-03-14T13:12:03;24.02;;;4.30;;
32295;SDS011;18781;51.550;5.418;2023-03-14T13:14:41;22.05;;;2.88;;
32295;SDS011;18781;51.550;5.418;2023-03-14T13:17:13;17.40;;;3.47;;
32295;SDS011;18781;51.550;5.418;2023-03-14T13:19:40;16.23;;;2.63;;
32295;SDS011;18781;51.550;5.418;2023-03-14T13:22:23;16.58;;;2.78;;
32295;SDS011;18781;51.550;5.418;2023-03-14T13:24:50;12.60;;;1.77;;
32295;SDS011;18781;51.550;5.418;2023-03-14T13:27:29;28.05;;;3.13;;
32295;SDS011;18781;51.550;5.418;2023-03-14T13:29:56;10.55;;;2.63;;
32295;SDS011;18781;51.550;5.418;2023-03-14T13:32:26;11.90;;;2.20;;
32295;SDS011;18781;51.550;5.418;2023-03-14T13:34:59;17.95;;;2.72;;
32295;SDS011;18781;51.550;5.418;2023-03-14T13:37:25;13.00;;;2.08;;
32295;SDS011;18781;51.550;5.418;2023-03-14T13:39:56;16.77;;;2.67;;
32295;SDS011;18781;51.550;5.418;2023-03-14T13:42:26;19.35;;;2.58;;
32295;SDS011;18781;51.550;5.418;2023-03-14T13:44:53;23.38;;;2.90;;
32295;SDS011;18781;51.550;5.418;2023-03-14T13:47:21;19.75;;;2.88;;
32295;SDS011;18781;51.550;5.418;2023-03-14T13:49:48;19.52;;;2.60;;
32295;SDS011;18781;51.550;5.418;2023-03-14T13:52:31;11.02;;;1.88;;
32295;SDS011;18781;51.550;5.418;2023-03-14T13:54:58;11.68;;;2.35;;
32295;SDS011;18781;51.550;5.418;2023-03-14T13:57:25;15.50;;;2.50;;
32295;SDS011;18781;51.550;5.418;2023-03-14T14:00:06;16.60;;;1.98;;
32295;SDS011;18781;51.550;5.418;2023-03-14T14:02:41;17.48;;;3.58;;
32295;SDS011;18781;51.550;5.418;2023-03-14T14:05:09;11.68;;;2.25;;
32295;SDS011;18781;51.550;5.418;2023-03-14T14:07:38;17.92;;;2.45;;
32295;SDS011;18781;51.550;5.418;2023-03-14T14:10:04;15.63;;;2.60;;
32295;SDS011;18781;51.550;5.418;2023-03-14T14:17:32;13.65;;;2.22;;
32295;SDS011;18781;51.550;5.418;2023-03-14T14:20:04;17.27;;;3.33;;
32295;SDS011;18781;51.550;5.418;2023-03-14T14:22:33;21.10;;;2.60;;
32295;SDS011;18781;51.550;5.418;2023-03-14T14:24:59;14.73;;;2.40;;
32295;SDS011;18781;51.550;5.418;2023-03-14T14:27:33;8.15;;;2.10;;
32295;SDS011;18781;51.550;5.418;2023-03-14T14:30:05;18.80;;;2.80;;
32295;SDS011;18781;51.550;5.418;2023-03-14T14:32:39;17.25;;;1.92;;
32295;SDS011;18781;51.550;5.418;2023-03-14T14:35:06;16.17;;;1.92;;
32295;SDS011;18781;51.550;5.418;2023-03-14T14:37:40;28.38;;;2.50;;
32295;SDS011;18781;51.550;5.418;2023-03-14T14:40:08;14.45;;;2.90;;
32295;SDS011;18781;51.550;5.418;2023-03-14T14:42:45;11.25;;;1.90;;
32295;SDS011;18781;51.550;5.418;2023-03-14T14:45:13;24.85;;;2.42;;
32295;SDS011;18781;51.550;5.418;2023-03-14T14:47:51;16.13;;;4.15;;
32295;SDS011;18781;51.550;5.418;2023-03-14T14:50:29;18.88;;;2.83;;
32295;SDS011;18781;51.550;5.418;2023-03-14T14:52:59;18.67;;;3.83;;
32295;SDS011;18781;51.550;5.418;2023-03-14T14:55:34;10.90;;;2.08;;
32295;SDS011;18781;51.550;5.418;2023-03-14T15:01:24;12.52;;;2.75;;
32295;SDS011;18781;51.550;5.418;2023-03-14T15:03:48;11.98;;;2.33;;
32295;SDS011;18781;51.550;5.418;2023-03-14T15:06:16;10.25;;;2.38;;
32295;SDS011;18781;51.550;5.418;2023-03-14T15:08:43;13.48;;;1.98;;
32295;SDS011;18781;51.550;5.418;2023-03-14T15:11:19;11.50;;;2.83;;
32295;SDS011;18781;51.550;5.418;2023-03-14T15:13:49;10.55;;;1.83;;
32295;SDS011;18781;51.550;5.418;2023-03-14T15:16:17;19.70;;;3.70;;
32295;SDS011;18781;51.550;5.418;2023-03-14T15:18:53;21.23;;;2.40;;
32295;SDS011;18781;51.550;5.418;2023-03-14T15:21:21;12.52;;;2.60;;
32295;SDS011;18781;51.550;5.418;2023-03-14T15:23:48;11.73;;;2.22;;
32295;SDS011;18781;51.550;5.418;2023-03-14T15:26:15;16.38;;;4.47;;
32295;SDS011;18781;51.550;5.418;2023-03-14T15:28:45;16.40;;;3.28;;
32295;SDS011;18781;51.550;5.418;2023-03-14T15:31:11;14.50;;;2.33;;
32295;SDS011;18781;51.550;5.418;2023-03-14T15:33:38;15.65;;;2.42;;
32295;SDS011;18781;51.550;5.418;2023-03-14T15:36:04;11.57;;;1.77;;
32295;SDS011;18781;51.550;5.418;2023-03-14T15:38:31;12.88;;;1.88;;
32295;SDS011;18781;51.550;5.418;2023-03-14T15:40:57;18.08;;;2.42;;
32295;SDS011;18781;51.550;5.418;2023-03-14T15:43:22;10.60;;;2.15;;
32295;SDS011;18781;51.550;5.418;2023-03-14T15:45:48;27.67;;;9.60;;
32295;SDS011;18781;51.550;5.418;2023-03-14T15:48:16;11.68;;;2.65;;
32295;SDS011;18781;51.550;5.418;2023-03-14T15:50:46;16.55;;;3.00;;
32295;SDS011;18781;51.550;5.418;2023-03-14T15:53:11;14.18;;;2.20;;
32295;SDS011;18781;51.550;5.418;2023-03-14T15:55:37;13.10;;;2.15;;
32295;SDS011;18781;51.550;5.418;2023-03-14T15:58:03;18.40;;;2.45;;
32295;SDS011;18781;51.550;5.418;2023-03-14T16:00:29;13.48;;;2.35;;
32295;SDS011;18781;51.550;5.418;2023-03-14T16:02:54;13.85;;;3.40;;
32295;SDS011;18781;51.550;5.418;2023-03-14T16:05:21;21.50;;;3.88;;
32295;SDS011;18781;51.550;5.418;2023-03-14T16:07:47;16.58;;;2.58;;
32295;SDS011;18781;51.550;5.418;2023-03-14T16:10:14;13.90;;;2.80;;
32295;SDS011;18781;51.550;5.418;2023-03-14T16:12:40;17.42;;;2.53;;
32295;SDS011;18781;51.550;5.418;2023-03-14T16:15:06;15.63;;;2.35;;
32295;SDS011;18781;51.550;5.418;2023-03-14T16:17:34;15.70;;;3.63;;
32295;SDS011;18781;51.550;5.418;2023-03-14T16:20:00;14.63;;;2.72;;
32295;SDS011;18781;51.550;5.418;2023-03-14T16:22:25;23.02;;;4.75;;
32295;SDS011;18781;51.550;5.418;2023-03-14T16:24:51;15.50;;;4.53;;